Time,TemperatureF,DewpointF,PressureIn,WindDirection,WindDirectionDegrees,WindSpeedMPH,WindSpeedGustMPH,Humidity,HourlyPrecipIn,Conditions,Clouds,dailyrainin,SoftwareType,DateUTC
2013-02-04 00:02:00,18.9,14.3,29.75,NNW,343,0.0,1.0,82,0.00,,,0.00,Wunderground v.1.15,2013-02-04 05:02:00,
2013-02-04 00:03:00,18.9,14.3,29.75,NNW,343,0.0,1.0,82,0.00,,,0.00,Wunderground v.1.15,2013-02-04 05:03:00,
2013-02-04 00:05:00,18.9,14.3,29.75,NNW,343,1.0,1.0,82,0.00,,,0.00,Wunderground v.1.15,2013-02-04 05:05:00,
2013-02-04 00:07:00,19.1,14.8,29.75,NNW,343,0.0,1.0,83,0.00,,,0.00,Wunderground v.1.15,2013-02-04 05:07:00,
2013-02-04 00:13:00,19.1,14.8,29.75,NNW,343,1.0,1.0,83,0.00,,,0.00,Wunderground v.1.15,2013-02-04 05:13:00,
2013-02-04 00:19:00,19.1,14.8,29.75,NNW,343,0.0,1.0,83,0.00,,,0.00,Wunderground v.1.15,2013-02-04 05:19:00,
2013-02-04 00:24:00,19.1,15.1,29.75,NNW,343,0.0,0.0,84,0.00,,,0.00,Wunderground v.1.15,2013-02-04 05:24:00,
2013-02-04 00:30:00,19.1,15.1,29.75,NNW,343,0.0,0.0,84,0.00,,,0.00,Wunderground v.1.15,2013-02-04 05:30:00,
2013-02-04 00:36:00,18.9,14.9,29.75,NNW,343,0.0,0.0,84,0.00,,,0.00,Wunderground v.1.15,2013-02-04 05:36:00,
2013-02-04 00:42:00,18.9,14.9,29.74,NNW,343,0.0,0.0,84,0.00,,,0.00,Wunderground v.1.15,2013-02-04 05:42:00,
2013-02-04 00:48:00,18.8,14.8,29.74,NNW,343,0.0,0.0,84,0.00,,,0.00,Wunderground v.1.15,2013-02-04 05:48:00,
2013-02-04 00:53:00,18.6,14.6,29.74,NNW,343,0.0,0.0,84,0.00,,,0.00,Wunderground v.1.15,2013-02-04 05:53:00,
2013-02-04 00:59:00,18.6,14.8,29.74,NNW,343,0.0,0.0,85,0.00,,,0.00,Wunderground v.1.15,2013-02-04 05:59:00,
2013-02-04 01:05:00,18.6,14.8,29.74,NNW,343,0.0,0.0,85,0.00,,,0.00,Wunderground v.1.15,2013-02-04 06:05:00,
2013-02-04 01:10:00,18.4,14.6,29.74,NNW,343,0.0,0.0,85,0.00,,,0.00,Wunderground v.1.15,2013-02-04 06:10:00,
2013-02-04 01:16:00,18.4,14.6,29.74,NNW,343,0.0,0.0,85,0.00,,,0.00,Wunderground v.1.15,2013-02-04 06:16:00,
2013-02-04 01:21:00,18.4,14.6,29.74,NNW,343,0.0,0.0,85,0.00,,,0.00,Wunderground v.1.15,2013-02-04 06:21:00,
2013-02-04 01:27:00,18.4,14.6,29.74,NNW,343,0.0,0.0,85,0.00,,,0.00,Wunderground v.1.15,2013-02-04 06:27:00,
2013-02-04 01:33:00,18.6,14.8,29.74,NNW,343,0.0,0.0,85,0.00,,,0.00,Wunderground v.1.15,2013-02-04 06:33:00,
2013-02-04 01:39:00,18.6,14.8,29.74,NNW,343,0.0,0.0,85,0.00,,,0.00,Wunderground v.1.15,2013-02-04 06:39:00,
2013-02-04 01:44:00,18.6,14.8,29.74,NNW,343,1.0,1.0,85,0.00,,,0.00,Wunderground v.1.15,2013-02-04 06:44:00,
2013-02-04 01:49:00,18.6,14.8,29.74,NNW,343,0.0,1.0,85,0.00,,,0.00,Wunderground v.1.15,2013-02-04 06:49:00,
2013-02-04 01:55:00,18.6,14.8,29.74,NNW,343,0.0,0.0,85,0.00,,,0.00,Wunderground v.1.15,2013-02-04 06:55:00,
2013-02-04 02:00:00,18.6,14.8,29.74,NNW,343,0.0,0.0,85,0.00,,,0.00,Wunderground v.1.15,2013-02-04 07:00:00,
2013-02-04 02:05:00,18.4,14.6,29.74,NNW,343,0.0,0.0,85,0.00,,,0.00,Wunderground v.1.15,2013-02-04 07:05:00,
2013-02-04 02:10:00,18.4,14.6,29.74,NNW,343,0.0,0.0,85,0.00,,,0.00,Wunderground v.1.15,2013-02-04 07:10:00,
2013-02-04 02:15:00,18.3,14.5,29.74,NNW,343,0.0,0.0,85,0.00,,,0.00,Wunderground v.1.15,2013-02-04 07:15:00,
2013-02-04 02:20:00,18.1,14.4,29.74,NNW,343,0.0,0.0,85,0.00,,,0.00,Wunderground v.1.15,2013-02-04 07:20:00,
2013-02-04 02:25:00,18.1,14.4,29.73,NNW,343,0.0,0.0,85,0.00,,,0.00,Wunderground v.1.15,2013-02-04 07:25:00,
2013-02-04 02:30:00,18.1,14.6,29.73,NNW,343,0.0,1.0,86,0.00,,,0.00,Wunderground v.1.15,2013-02-04 07:30:00,
2013-02-04 02:35:00,18.3,14.8,29.73,NNW,343,0.0,1.0,86,0.00,,,0.00,Wunderground v.1.15,2013-02-04 07:35:00,
2013-02-04 02:40:00,18.3,14.8,29.73,NNW,343,0.0,0.0,86,0.00,,,0.00,Wunderground v.1.15,2013-02-04 07:40:00,
2013-02-04 02:45:00,18.3,14.8,29.73,NNW,343,0.0,1.0,86,0.00,,,0.00,Wunderground v.1.15,2013-02-04 07:45:00,
2013-02-04 02:51:00,18.3,14.8,29.73,NNW,343,0.0,0.0,86,0.00,,,0.00,Wunderground v.1.15,2013-02-04 07:51:00,
2013-02-04 02:56:00,18.3,14.8,29.73,NNW,343,0.0,1.0,86,0.00,,,0.00,Wunderground v.1.15,2013-02-04 07:56:00,
2013-02-04 03:01:00,18.1,14.6,29.73,NNW,343,1.0,2.0,86,0.00,,,0.00,Wunderground v.1.15,2013-02-04 08:01:00,
2013-02-04 03:06:00,18.1,14.6,29.73,NNW,343,0.0,2.0,86,0.00,,,0.00,Wunderground v.1.15,2013-02-04 08:06:00,
2013-02-04 03:11:00,18.0,14.5,29.73,NNW,343,0.0,0.0,86,0.00,,,0.00,Wunderground v.1.15,2013-02-04 08:11:00,
2013-02-04 03:16:00,17.7,14.2,29.73,NNW,343,0.0,0.0,86,0.00,,,0.00,Wunderground v.1.15,2013-02-04 08:16:00,
2013-02-04 03:21:00,17.5,14.0,29.73,NNW,343,0.0,0.0,86,0.00,,,0.00,Wunderground v.1.15,2013-02-04 08:21:00,
2013-02-04 03:26:00,17.5,14.0,29.74,NNW,343,0.0,0.0,86,0.00,,,0.00,Wunderground v.1.15,2013-02-04 08:26:00,
2013-02-04 03:31:00,17.2,13.7,29.74,NNW,343,0.0,0.0,86,0.00,,,0.00,Wunderground v.1.15,2013-02-04 08:31:00,
2013-02-04 03:36:00,17.0,13.5,29.74,NNW,343,0.0,0.0,86,0.00,,,0.00,Wunderground v.1.15,2013-02-04 08:36:00,
2013-02-04 03:41:00,16.9,13.4,29.74,NNW,343,0.0,0.0,86,0.00,,,0.00,Wunderground v.1.15,2013-02-04 08:41:00,
2013-02-04 03:47:00,17.0,13.8,29.74,NNW,343,0.0,0.0,87,0.00,,,0.00,Wunderground v.1.15,2013-02-04 08:47:00,
2013-02-04 03:52:00,17.0,13.8,29.74,NNW,343,0.0,0.0,87,0.00,,,0.00,Wunderground v.1.15,2013-02-04 08:52:00,
2013-02-04 03:57:00,17.0,13.8,29.75,NNW,343,0.0,0.0,87,0.00,,,0.00,Wunderground v.1.15,2013-02-04 08:57:00,
2013-02-04 04:02:00,17.0,13.8,29.75,NNW,343,0.0,0.0,87,0.00,,,0.00,Wunderground v.1.15,2013-02-04 09:02:00,
2013-02-04 04:07:00,17.2,14.0,29.75,NNW,343,0.0,1.0,87,0.00,,,0.00,Wunderground v.1.15,2013-02-04 09:07:00,
2013-02-04 04:12:00,17.3,14.1,29.75,NNW,343,0.0,0.0,87,0.00,,,0.00,Wunderground v.1.15,2013-02-04 09:12:00,
2013-02-04 04:17:00,17.5,14.6,29.75,NNW,343,0.0,2.0,88,0.00,,,0.00,Wunderground v.1.15,2013-02-04 09:17:00,
2013-02-04 04:22:00,17.5,14.6,29.75,NNW,343,1.0,2.0,88,0.00,,,0.00,Wunderground v.1.15,2013-02-04 09:22:00,
2013-02-04 04:28:00,17.3,14.1,29.76,NNW,343,0.0,2.0,87,0.00,,,0.00,Wunderground v.1.15,2013-02-04 09:28:00,
2013-02-04 04:33:00,17.2,14.3,29.76,NNW,343,0.0,0.0,88,0.00,,,0.00,Wunderground v.1.15,2013-02-04 09:33:00,
2013-02-04 04:38:00,16.9,13.7,29.76,NNW,343,0.0,0.0,87,0.00,,,0.00,Wunderground v.1.15,2013-02-04 09:38:00,
2013-02-04 04:43:00,16.5,13.3,29.76,NNW,343,0.0,0.0,87,0.00,,,0.00,Wunderground v.1.15,2013-02-04 09:43:00,
2013-02-04 04:48:00,16.4,13.5,29.76,NNW,343,0.0,0.0,88,0.00,,,0.00,Wunderground v.1.15,2013-02-04 09:48:00,
2013-02-04 04:53:00,16.2,13.3,29.76,NNW,343,0.0,0.0,88,0.00,,,0.00,Wunderground v.1.15,2013-02-04 09:53:00,
2013-02-04 04:58:00,16.4,13.5,29.76,NNW,343,0.0,3.0,88,0.00,,,0.00,Wunderground v.1.15,2013-02-04 09:58:00,
2013-02-04 05:03:00,16.5,13.6,29.76,NNW,343,0.0,2.0,88,0.00,,,0.00,Wunderground v.1.15,2013-02-04 10:03:00,
2013-02-04 05:08:00,16.5,13.3,29.76,NNW,343,0.0,2.0,87,0.00,,,0.00,Wunderground v.1.15,2013-02-04 10:08:00,
2013-02-04 05:13:00,16.4,13.2,29.76,NNW,343,1.0,3.0,87,0.00,,,0.00,Wunderground v.1.15,2013-02-04 10:13:00,
2013-02-04 05:18:00,16.5,13.3,29.76,NNW,343,2.0,3.0,87,0.00,,,0.00,Wunderground v.1.15,2013-02-04 10:18:00,
2013-02-04 05:23:00,16.9,13.7,29.76,NNW,343,1.0,2.0,87,0.00,,,0.00,Wunderground v.1.15,2013-02-04 10:23:00,
2013-02-04 05:28:00,16.9,13.2,29.77,NNW,343,0.0,2.0,85,0.00,,,0.00,Wunderground v.1.15,2013-02-04 10:28:00,
2013-02-04 05:33:00,16.5,12.8,29.77,NNW,343,3.0,3.0,85,0.00,,,0.00,Wunderground v.1.15,2013-02-04 10:33:00,
2013-02-04 05:38:00,16.7,13.0,29.77,NNW,343,4.0,4.0,85,0.00,,,0.00,Wunderground v.1.15,2013-02-04 10:38:00,
2013-02-04 05:43:00,17.0,13.0,29.76,NNW,344,3.0,5.0,84,0.00,,,0.00,Wunderground v.1.15,2013-02-04 10:43:00,
2013-02-04 05:48:00,17.3,13.0,29.76,NNW,348,2.0,6.0,83,0.00,,,0.00,Wunderground v.1.15,2013-02-04 10:48:00,
2013-02-04 05:53:00,17.3,12.5,29.76,NNW,348,3.0,5.0,81,0.00,,,0.00,Wunderground v.1.15,2013-02-04 10:53:00,
2013-02-04 05:58:00,17.0,11.9,29.78,NNW,348,0.0,5.0,80,0.00,,,0.00,Wunderground v.1.15,2013-02-04 10:58:00,
2013-02-04 06:04:00,16.4,11.0,29.78,NNW,348,2.0,2.0,79,0.00,,,0.00,Wunderground v.1.15,2013-02-04 11:04:00,
2013-02-04 06:09:00,16.1,11.0,29.78,NNW,348,1.0,3.0,80,0.00,,,0.00,Wunderground v.1.15,2013-02-04 11:09:00,
2013-02-04 06:14:00,15.9,10.5,29.78,NNW,348,0.0,1.0,79,0.00,,,0.00,Wunderground v.1.15,2013-02-04 11:14:00,
2013-02-04 06:19:00,15.6,10.2,29.78,NNW,348,0.0,1.0,79,0.00,,,0.00,Wunderground v.1.15,2013-02-04 11:19:00,
2013-02-04 06:24:00,15.2,9.9,29.78,NNW,348,0.0,2.0,79,0.00,,,0.00,Wunderground v.1.15,2013-02-04 11:24:00,
2013-02-04 06:30:00,15.2,9.9,29.78,NNW,348,0.0,0.0,79,0.00,,,0.00,Wunderground v.1.15,2013-02-04 11:30:00,
2013-02-04 06:35:00,15.2,9.9,29.78,NNW,348,0.0,1.0,79,0.00,,,0.00,Wunderground v.1.15,2013-02-04 11:35:00,
2013-02-04 06:40:00,15.4,10.1,29.78,NNW,348,0.0,0.0,79,0.00,,,0.00,Wunderground v.1.15,2013-02-04 11:40:00,
2013-02-04 06:45:00,15.6,10.2,29.79,NNW,348,1.0,2.0,79,0.00,,,0.00,Wunderground v.1.15,2013-02-04 11:45:00,
2013-02-04 06:50:00,15.7,10.1,29.79,NNW,348,0.0,0.0,78,0.00,,,0.00,Wunderground v.1.15,2013-02-04 11:50:00,
2013-02-04 06:55:00,15.4,9.5,29.79,NNW,348,0.0,2.0,77,0.00,,,0.00,Wunderground v.1.15,2013-02-04 11:55:00,
2013-02-04 07:00:00,15.4,9.5,29.79,NNW,348,0.0,1.0,77,0.00,,,0.00,Wunderground v.1.15,2013-02-04 12:00:00,
2013-02-04 07:05:00,15.4,9.5,29.79,NNW,348,0.0,3.0,77,0.00,,,0.00,Wunderground v.1.15,2013-02-04 12:05:00,
2013-02-04 07:10:00,15.4,9.5,29.79,NNW,348,1.0,2.0,77,0.00,,,0.00,Wunderground v.1.15,2013-02-04 12:10:00,
2013-02-04 07:15:00,15.6,9.4,29.79,NNW,348,0.0,2.0,76,0.00,,,0.00,Wunderground v.1.15,2013-02-04 12:15:00,
2013-02-04 07:20:00,15.6,9.4,29.79,NNW,348,0.0,0.0,76,0.00,,,0.00,Wunderground v.1.15,2013-02-04 12:20:00,
2013-02-04 07:25:00,15.2,9.0,29.79,NNW,348,1.0,2.0,76,0.00,,,0.00,Wunderground v.1.15,2013-02-04 12:25:00,
2013-02-04 07:30:00,15.1,9.2,29.79,NNW,348,1.0,2.0,77,0.00,,,0.00,Wunderground v.1.15,2013-02-04 12:30:00,
2013-02-04 07:35:00,14.9,9.3,29.79,NNW,348,0.0,2.0,78,0.00,,,0.00,Wunderground v.1.15,2013-02-04 12:35:00,
2013-02-04 07:40:00,14.6,9.3,29.79,NNW,348,0.0,1.0,79,0.00,,,0.00,Wunderground v.1.15,2013-02-04 12:40:00,
2013-02-04 07:45:00,14.6,9.6,29.79,NNW,348,0.0,2.0,80,0.00,,,0.00,Wunderground v.1.15,2013-02-04 12:45:00,
2013-02-04 07:50:00,14.9,10.1,29.79,NNW,348,1.0,1.0,81,0.00,,,0.00,Wunderground v.1.15,2013-02-04 12:50:00,
2013-02-04 07:55:00,15.4,10.6,29.79,North,349,0.0,4.0,81,0.00,,,0.00,Wunderground v.1.15,2013-02-04 12:55:00,
2013-02-04 08:00:00,15.7,10.9,29.80,North,349,2.0,2.0,81,0.00,,,0.00,Wunderground v.1.15,2013-02-04 13:00:00,
2013-02-04 08:05:00,16.1,11.3,29.80,North,349,0.0,3.0,81,0.00,,,0.00,Wunderground v.1.15,2013-02-04 13:05:00,
2013-02-04 08:10:00,16.4,11.3,29.80,North,350,2.0,2.0,80,0.00,,,0.00,Wunderground v.1.15,2013-02-04 13:10:00,
2013-02-04 08:15:00,17.0,11.9,29.80,North,350,1.0,3.0,80,0.00,,,0.00,Wunderground v.1.15,2013-02-04 13:15:00,
2013-02-04 08:20:00,18.0,12.9,29.80,North,350,0.0,1.0,80,0.00,,,0.00,Wunderground v.1.15,2013-02-04 13:20:00,
2013-02-04 08:25:00,18.3,12.6,29.81,North,350,0.0,3.0,78,0.00,,,0.00,Wunderground v.1.15,2013-02-04 13:25:00,
2013-02-04 08:30:00,18.1,12.1,29.81,North,350,2.0,4.0,77,0.00,,,0.00,Wunderground v.1.15,2013-02-04 13:30:00,
2013-02-04 08:35:00,18.4,12.4,29.81,North,350,2.0,4.0,77,0.00,,,0.00,Wunderground v.1.15,2013-02-04 13:35:00,
2013-02-04 08:40:00,18.6,12.3,29.81,North,350,2.0,2.0,76,0.00,,,0.00,Wunderground v.1.15,2013-02-04 13:40:00,
2013-02-04 08:45:00,18.6,12.0,29.81,North,350,2.0,3.0,75,0.00,,,0.00,Wunderground v.1.15,2013-02-04 13:45:00,
2013-02-04 08:50:00,18.4,11.8,29.81,North,355,2.0,4.0,75,0.00,,,0.00,Wunderground v.1.15,2013-02-04 13:50:00,
2013-02-04 08:56:00,18.8,12.2,29.80,ENE,59,4.0,5.0,75,0.00,,,0.00,Wunderground v.1.15,2013-02-04 13:56:00,
2013-02-04 09:01:00,19.2,12.3,29.80,East,90,3.0,4.0,74,0.00,,,0.00,Wunderground v.1.15,2013-02-04 14:01:00,
2013-02-04 09:06:00,19.2,12.3,29.80,ESE,116,2.0,7.0,74,0.00,,,0.00,Wunderground v.1.15,2013-02-04 14:06:00,
2013-02-04 09:11:00,19.7,12.8,29.79,SE,126,8.0,8.0,74,0.00,,,0.00,Wunderground v.1.15,2013-02-04 14:11:00,
2013-02-04 09:16:00,20.3,13.0,29.79,SE,125,6.0,9.0,73,0.00,,,0.00,Wunderground v.1.15,2013-02-04 14:16:00,
2013-02-04 09:21:00,20.6,13.0,29.79,SE,138,6.0,6.0,72,0.00,,,0.00,Wunderground v.1.15,2013-02-04 14:21:00,
2013-02-04 09:26:00,20.5,12.3,29.79,SE,144,3.0,6.0,70,0.00,,,0.00,Wunderground v.1.15,2013-02-04 14:26:00,
2013-02-04 09:31:00,20.6,11.7,29.79,SE,143,0.0,4.0,68,0.00,,,0.00,Wunderground v.1.15,2013-02-04 14:31:00,
2013-02-04 09:36:00,21.1,12.2,29.79,SE,136,6.0,6.0,68,0.00,,,0.00,Wunderground v.1.15,2013-02-04 14:36:00,
2013-02-04 09:41:00,21.6,12.3,29.78,SE,140,0.0,4.0,67,0.00,,,0.00,Wunderground v.1.15,2013-02-04 14:41:00,
2013-02-04 09:46:00,23.2,12.5,29.78,SE,139,0.0,5.0,63,0.00,,,0.00,Wunderground v.1.15,2013-02-04 14:46:00,
2013-02-04 09:51:00,22.7,11.3,29.78,SW,227,5.0,5.0,61,0.00,,,0.00,Wunderground v.1.15,2013-02-04 14:51:00,
2013-02-04 09:57:00,22.2,7.2,29.78,NNW,330,2.0,15.0,52,0.00,,,0.00,Wunderground v.1.15,2013-02-04 14:57:00,
2013-02-04 10:02:00,22.2,8.5,29.78,NW,308,11.0,18.0,55,0.00,,,0.00,Wunderground v.1.15,2013-02-04 15:02:00,
2013-02-04 10:07:00,21.8,7.3,29.78,West,271,11.0,21.0,53,0.00,,,0.00,Wunderground v.1.15,2013-02-04 15:07:00,
2013-02-04 10:12:00,21.6,8.3,29.78,WSW,242,0.0,10.0,56,0.00,,,0.00,Wunderground v.1.15,2013-02-04 15:12:00,
2013-02-04 10:17:00,21.8,8.1,29.78,West,277,9.0,15.0,55,0.00,,,0.00,Wunderground v.1.15,2013-02-04 15:17:00,
2013-02-04 10:22:00,21.8,6.8,29.78,South,180,4.0,6.0,52,0.00,,,0.00,Wunderground v.1.15,2013-02-04 15:22:00,
2013-02-04 10:27:00,22.2,7.6,29.78,SSW,209,4.0,6.0,53,0.00,,,0.00,Wunderground v.1.15,2013-02-04 15:27:00,
2013-02-04 10:32:00,22.4,8.2,29.78,WSW,238,7.0,10.0,54,0.00,,,0.00,Wunderground v.1.15,2013-02-04 15:32:00,
2013-02-04 10:37:00,22.1,6.3,29.78,WSW,245,2.0,12.0,50,0.00,,,0.00,Wunderground v.1.15,2013-02-04 15:37:00,
2013-02-04 10:42:00,22.5,7.9,29.78,WNW,282,0.0,5.0,53,0.00,,,0.00,Wunderground v.1.15,2013-02-04 15:42:00,
2013-02-04 10:47:00,23.0,10.4,29.78,WNW,291,2.0,7.0,58,0.00,,,0.00,Wunderground v.1.15,2013-02-04 15:47:00,
2013-02-04 10:52:00,22.4,4.7,29.78,NW,315,5.0,13.0,46,0.00,,,0.00,Wunderground v.1.15,2013-02-04 15:52:00,
2013-02-04 10:57:00,22.1,0.9,29.78,WNW,294,7.0,14.0,39,0.00,,,0.00,Wunderground v.1.15,2013-02-04 15:57:00,
2013-02-04 11:02:00,21.9,-0.4,29.78,WNW,293,4.0,10.0,37,0.00,,,0.00,Wunderground v.1.15,2013-02-04 16:02:00,
2013-02-04 11:07:00,22.7,0.3,29.78,NW,304,4.0,12.0,37,0.00,,,0.00,Wunderground v.1.15,2013-02-04 16:07:00,
2013-02-04 11:12:00,22.9,-1.3,29.78,WNW,290,5.0,11.0,34,0.00,,,0.00,Wunderground v.1.15,2013-02-04 16:12:00,
2013-02-04 11:17:00,22.9,-0.7,29.78,WNW,283,15.0,15.0,35,0.00,,,0.00,Wunderground v.1.15,2013-02-04 16:17:00,
2013-02-04 11:23:00,23.0,-1.9,29.78,NW,313,16.0,16.0,33,0.00,,,0.00,Wunderground v.1.15,2013-02-04 16:23:00,
2013-02-04 11:28:00,23.0,-2.5,29.77,WNW,298,10.0,16.0,32,0.00,,,0.00,Wunderground v.1.15,2013-02-04 16:28:00,
2013-02-04 11:33:00,23.2,-2.4,29.77,NW,323,9.0,15.0,32,0.00,,,0.00,Wunderground v.1.15,2013-02-04 16:33:00,
2013-02-04 11:38:00,23.6,-2.7,29.77,WNW,294,11.0,19.0,31,0.00,,,0.00,Wunderground v.1.15,2013-02-04 16:38:00,
2013-02-04 11:43:00,23.3,-2.3,29.76,WNW,294,22.0,22.0,32,0.00,,,0.00,Wunderground v.1.15,2013-02-04 16:43:00,
2013-02-04 11:48:00,23.6,-2.7,29.76,West,276,19.0,22.0,31,0.00,,,0.00,Wunderground v.1.15,2013-02-04 16:48:00,
2013-02-04 11:53:00,23.5,-3.4,29.76,WNW,292,19.0,19.0,30,0.00,,,0.00,Wunderground v.1.15,2013-02-04 16:53:00,
2013-02-04 11:59:00,23.2,-3.7,29.76,WNW,296,12.0,21.0,30,0.00,,,0.00,Wunderground v.1.15,2013-02-04 16:59:00,
2013-02-04 12:04:00,23.2,-3.7,29.76,WNW,301,5.0,17.0,30,0.00,,,0.00,Wunderground v.1.15,2013-02-04 17:04:00,
2013-02-04 12:09:00,23.6,-2.0,29.76,West,266,4.0,21.0,32,0.00,,,0.00,Wunderground v.1.15,2013-02-04 17:09:00,
2013-02-04 12:14:00,23.6,-2.7,29.75,WNW,300,11.0,16.0,31,0.00,,,0.00,Wunderground v.1.15,2013-02-04 17:14:00,
2013-02-04 12:19:00,24.1,-2.2,29.75,WNW,288,12.0,17.0,31,0.00,,,0.00,Wunderground v.1.15,2013-02-04 17:19:00,
2013-02-04 12:24:00,24.4,-1.3,29.75,NNW,335,13.0,15.0,32,0.00,,,0.00,Wunderground v.1.15,2013-02-04 17:24:00,
2013-02-04 12:29:00,24.1,-2.9,29.75,WNW,297,9.0,22.0,30,0.00,,,0.00,Wunderground v.1.15,2013-02-04 17:29:00,
2013-02-04 12:34:00,24.4,-4.9,29.75,NW,314,15.0,21.0,27,0.00,,,0.00,Wunderground v.1.15,2013-02-04 17:34:00,
2013-02-04 12:39:00,24.1,-3.6,29.75,NW,318,15.0,21.0,29,0.00,,,0.00,Wunderground v.1.15,2013-02-04 17:39:00,
2013-02-04 12:44:00,24.5,-4.0,29.75,WNW,285,10.0,21.0,28,0.00,,,0.00,Wunderground v.1.15,2013-02-04 17:44:00,
2013-02-04 12:49:00,24.7,-4.6,29.75,NNW,339,12.0,21.0,27,0.00,,,0.00,Wunderground v.1.15,2013-02-04 17:49:00,
2013-02-04 12:54:00,24.4,-5.6,29.75,NW,308,7.0,23.0,26,0.00,,,0.00,Wunderground v.1.15,2013-02-04 17:54:00,
2013-02-04 12:59:00,24.8,-4.5,29.76,WNW,288,10.0,23.0,27,0.00,,,0.00,Wunderground v.1.15,2013-02-04 17:59:00,
2013-02-04 13:04:00,25.0,-6.8,29.76,WNW,289,17.0,22.0,24,0.00,,,0.00,Wunderground v.1.15,2013-02-04 18:04:00,
2013-02-04 13:09:00,24.5,-7.2,29.76,WNW,303,19.0,22.0,24,0.00,,,0.00,Wunderground v.1.15,2013-02-04 18:09:00,
2013-02-04 13:14:00,24.8,-6.1,29.75,WNW,284,10.0,23.0,25,0.00,,,0.00,Wunderground v.1.15,2013-02-04 18:14:00,
2013-02-04 13:20:00,25.0,-6.8,29.75,WNW,288,10.0,23.0,24,0.00,,,0.00,Wunderground v.1.15,2013-02-04 18:20:00,
2013-02-04 13:25:00,24.8,-6.1,29.75,WNW,302,14.0,24.0,25,0.00,,,0.00,Wunderground v.1.15,2013-02-04 18:25:00,
2013-02-04 13:30:00,25.1,-7.6,29.75,WSW,252,24.0,24.0,23,0.00,,,0.00,Wunderground v.1.15,2013-02-04 18:30:00,
2013-02-04 13:35:00,24.8,-8.7,29.75,WSW,257,18.0,25.0,22,0.00,,,0.00,Wunderground v.1.15,2013-02-04 18:35:00,
2013-02-04 13:40:00,24.8,-7.8,29.76,West,271,12.0,17.0,23,0.00,,,0.00,Wunderground v.1.15,2013-02-04 18:40:00,
2013-02-04 13:45:00,25.3,-7.4,29.76,NW,313,12.0,21.0,23,0.00,,,0.00,Wunderground v.1.15,2013-02-04 18:45:00,
2013-02-04 13:50:00,25.3,-8.3,29.76,WNW,286,12.0,18.0,22,0.00,,,0.00,Wunderground v.1.15,2013-02-04 18:50:00,
2013-02-04 13:56:00,25.4,-8.2,29.76,NW,315,6.0,21.0,22,0.00,,,0.00,Wunderground v.1.15,2013-02-04 18:56:00,
2013-02-04 14:01:00,25.4,-9.2,29.76,WNW,283,18.0,21.0,21,0.00,,,0.00,Wunderground v.1.15,2013-02-04 19:01:00,
2013-02-04 14:06:00,25.3,-8.3,29.76,West,269,9.0,23.0,22,0.00,,,0.00,Wunderground v.1.15,2013-02-04 19:06:00,
2013-02-04 14:11:00,25.1,-10.4,29.76,West,264,14.0,17.0,20,0.00,,,0.00,Wunderground v.1.15,2013-02-04 19:11:00,
2013-02-04 14:16:00,25.3,-9.3,29.76,WNW,288,7.0,18.0,21,0.00,,,0.00,Wunderground v.1.15,2013-02-04 19:16:00,
2013-02-04 14:21:00,25.6,-7.1,29.76,West,278,14.0,15.0,23,0.00,,,0.00,Wunderground v.1.15,2013-02-04 19:21:00,
2013-02-04 14:26:00,25.1,-8.5,29.76,West,281,15.0,23.0,22,0.00,,,0.00,Wunderground v.1.15,2013-02-04 19:26:00,
2013-02-04 14:31:00,25.3,-8.3,29.76,NW,304,14.0,19.0,22,0.00,,,0.00,Wunderground v.1.15,2013-02-04 19:31:00,
2013-02-04 14:36:00,24.8,-9.7,29.76,WNW,296,15.0,26.0,21,0.00,,,0.00,Wunderground v.1.15,2013-02-04 19:36:00,
2013-02-04 14:41:00,25.3,-8.3,29.77,NW,317,7.0,16.0,22,0.00,,,0.00,Wunderground v.1.15,2013-02-04 19:41:00,
2013-02-04 14:46:00,25.1,-8.5,29.77,NW,305,18.0,18.0,22,0.00,,,0.00,Wunderground v.1.15,2013-02-04 19:46:00,
2013-02-04 14:51:00,24.7,-8.8,29.77,WSW,249,20.0,26.0,22,0.00,,,0.00,Wunderground v.1.15,2013-02-04 19:51:00,
2013-02-04 14:56:00,24.2,-9.3,29.78,West,259,10.0,27.0,22,0.00,,,0.00,Wunderground v.1.15,2013-02-04 19:56:00,
2013-02-04 15:02:00,24.5,-8.1,29.78,West,281,15.0,21.0,23,0.00,,,0.00,Wunderground v.1.15,2013-02-04 20:02:00,
2013-02-04 15:07:00,24.5,-9.0,29.78,West,281,18.0,26.0,22,0.00,,,0.00,Wunderground v.1.15,2013-02-04 20:07:00,
2013-02-04 15:12:00,24.7,-7.9,29.78,NW,304,14.0,19.0,23,0.00,,,0.00,Wunderground v.1.15,2013-02-04 20:12:00,
2013-02-04 15:17:00,24.5,-8.1,29.78,WNW,300,13.0,23.0,23,0.00,,,0.00,Wunderground v.1.15,2013-02-04 20:17:00,
2013-02-04 15:22:00,24.7,-7.9,29.78,NW,319,12.0,14.0,23,0.00,,,0.00,Wunderground v.1.15,2013-02-04 20:22:00,
2013-02-04 15:27:00,24.5,-9.9,29.79,NW,309,18.0,25.0,21,0.00,,,0.00,Wunderground v.1.15,2013-02-04 20:27:00,
2013-02-04 15:32:00,23.9,-8.6,29.79,WNW,288,19.0,33.0,23,0.00,,,0.00,Wunderground v.1.15,2013-02-04 20:32:00,
2013-02-04 15:37:00,23.6,-8.0,29.79,NW,313,17.0,33.0,24,0.00,,,0.00,Wunderground v.1.15,2013-02-04 20:37:00,
2013-02-04 15:43:00,23.8,-8.7,29.79,West,259,14.0,24.0,23,0.00,,,0.00,Wunderground v.1.15,2013-02-04 20:43:00,
2013-02-04 15:48:00,23.6,-8.9,29.79,West,279,18.0,24.0,23,0.00,,,0.00,Wunderground v.1.15,2013-02-04 20:48:00,
2013-02-04 15:53:00,23.5,-7.2,29.79,West,269,11.0,26.0,25,0.00,,,0.00,Wunderground v.1.15,2013-02-04 20:53:00,
2013-02-04 15:58:00,23.3,-7.4,29.79,WNW,298,26.0,26.0,25,0.00,,,0.00,Wunderground v.1.15,2013-02-04 20:58:00,
2013-02-04 16:03:00,23.0,-7.7,29.79,WNW,286,15.0,22.0,25,0.00,,,0.00,Wunderground v.1.15,2013-02-04 21:03:00,
2013-02-04 16:08:00,23.0,-7.7,29.79,West,267,11.0,22.0,25,0.00,,,0.00,Wunderground v.1.15,2013-02-04 21:08:00,
2013-02-04 16:14:00,23.0,-7.7,29.80,WNW,294,16.0,23.0,25,0.00,,,0.00,Wunderground v.1.15,2013-02-04 21:14:00,
2013-02-04 16:19:00,22.9,-7.8,29.80,NW,306,11.0,23.0,25,0.00,,,0.00,Wunderground v.1.15,2013-02-04 21:19:00,
2013-02-04 16:24:00,22.7,-7.9,29.80,WNW,302,9.0,17.0,25,0.00,,,0.00,Wunderground v.1.15,2013-02-04 21:24:00,
2013-02-04 16:29:00,22.7,-7.1,29.80,West,281,10.0,17.0,26,0.00,,,0.00,Wunderground v.1.15,2013-02-04 21:29:00,
2013-02-04 16:34:00,22.5,-7.3,29.80,WSW,238,14.0,19.0,26,0.00,,,0.00,Wunderground v.1.15,2013-02-04 21:34:00,
2013-02-04 16:39:00,22.2,-7.6,29.80,West,281,13.0,19.0,26,0.00,,,0.00,Wunderground v.1.15,2013-02-04 21:39:00,
2013-02-04 16:44:00,22.1,-7.6,29.80,WNW,300,7.0,21.0,26,0.00,,,0.00,Wunderground v.1.15,2013-02-04 21:44:00,
2013-02-04 16:49:00,21.8,-8.7,29.80,WNW,301,7.0,23.0,25,0.00,,,0.00,Wunderground v.1.15,2013-02-04 21:49:00,
2013-02-04 16:54:00,21.6,-8.1,29.80,WNW,302,11.0,16.0,26,0.00,,,0.00,Wunderground v.1.15,2013-02-04 21:54:00,
2013-02-04 16:59:00,21.3,-8.3,29.81,NW,312,15.0,18.0,26,0.00,,,0.00,Wunderground v.1.15,2013-02-04 21:59:00,
2013-02-04 17:04:00,21.1,-8.5,29.81,NNW,336,10.0,17.0,26,0.00,,,0.00,Wunderground v.1.15,2013-02-04 22:04:00,
2013-02-04 17:10:00,21.0,-7.8,29.81,NNW,329,18.0,20.0,27,0.00,,,0.00,Wunderground v.1.15,2013-02-04 22:10:00,
2013-02-04 17:15:00,20.8,-7.2,29.82,NW,310,12.0,19.0,28,0.00,,,0.00,Wunderground v.1.15,2013-02-04 22:15:00,
2013-02-04 17:20:00,20.5,-8.3,29.82,NNW,331,15.0,19.0,27,0.00,,,0.00,Wunderground v.1.15,2013-02-04 22:20:00,
2013-02-04 17:25:00,20.5,-7.5,29.82,NW,310,10.0,15.0,28,0.00,,,0.00,Wunderground v.1.15,2013-02-04 22:25:00,
2013-02-04 17:30:00,20.3,-7.7,29.82,NW,323,6.0,9.0,28,0.00,,,0.00,Wunderground v.1.15,2013-02-04 22:30:00,
2013-02-04 17:35:00,20.3,-7.0,29.82,NW,320,7.0,20.0,29,0.00,,,0.00,Wunderground v.1.15,2013-02-04 22:35:00,
2013-02-04 17:40:00,20.2,-6.3,29.82,WNW,282,13.0,13.0,30,0.00,,,0.00,Wunderground v.1.15,2013-02-04 22:40:00,
2013-02-04 17:45:00,20.0,-7.2,29.83,West,279,12.0,17.0,29,0.00,,,0.00,Wunderground v.1.15,2013-02-04 22:45:00,
2013-02-04 17:50:00,19.9,-6.6,29.83,West,264,10.0,13.0,30,0.00,,,0.00,Wunderground v.1.15,2013-02-04 22:50:00,
2013-02-04 17:55:00,19.9,-8.0,29.83,West,273,13.0,19.0,28,0.00,,,0.00,Wunderground v.1.15,2013-02-04 22:55:00,
2013-02-04 18:00:00,19.9,-7.3,29.84,West,278,9.0,15.0,29,0.00,,,0.00,Wunderground v.1.15,2013-02-04 23:00:00,
2013-02-04 18:05:00,19.7,-7.5,29.84,NW,321,11.0,15.0,29,0.00,,,0.00,Wunderground v.1.15,2013-02-04 23:05:00,
2013-02-04 18:10:00,19.5,-6.3,29.84,WNW,292,13.0,13.0,31,0.00,,,0.00,Wunderground v.1.15,2013-02-04 23:10:00,
2013-02-04 18:15:00,19.4,-6.4,29.85,NW,304,3.0,16.0,31,0.00,,,0.00,Wunderground v.1.15,2013-02-04 23:15:00,
2013-02-04 18:20:00,19.4,-6.4,29.85,NNW,332,13.0,16.0,31,0.00,,,0.00,Wunderground v.1.15,2013-02-04 23:20:00,
2013-02-04 18:25:00,19.4,-6.4,29.85,NW,312,6.0,18.0,31,0.00,,,0.00,Wunderground v.1.15,2013-02-04 23:25:00,
2013-02-04 18:30:00,19.2,-5.9,29.85,NW,314,12.0,15.0,32,0.00,,,0.00,Wunderground v.1.15,2013-02-04 23:30:00,
2013-02-04 18:35:00,19.1,-6.0,29.85,NW,313,5.0,16.0,32,0.00,,,0.00,Wunderground v.1.15,2013-02-04 23:35:00,
2013-02-04 18:40:00,18.9,-6.2,29.86,WNW,303,6.0,9.0,32,0.00,,,0.00,Wunderground v.1.15,2013-02-04 23:40:00,
2013-02-04 18:45:00,18.8,-5.6,29.86,WNW,301,14.0,14.0,33,0.00,,,0.00,Wunderground v.1.15,2013-02-04 23:45:00,
2013-02-04 18:50:00,18.8,-5.6,29.86,NNW,333,13.0,14.0,33,0.00,,,0.00,Wunderground v.1.15,2013-02-04 23:50:00,
2013-02-04 18:56:00,18.9,-5.5,29.86,NW,326,9.0,15.0,33,0.00,,,0.00,Wunderground v.1.15,2013-02-04 23:56:00,
2013-02-04 19:01:00,18.6,-5.8,29.86,NW,304,5.0,11.0,33,0.00,,,0.00,Wunderground v.1.15,2013-02-05 00:01:00,
2013-02-04 19:06:00,18.6,-5.8,29.86,NW,313,3.0,11.0,33,0.00,,,0.00,Wunderground v.1.15,2013-02-05 00:06:00,
2013-02-04 19:11:00,18.4,-5.3,29.87,NW,308,6.0,11.0,34,0.00,,,0.00,Wunderground v.1.15,2013-02-05 00:11:00,
2013-02-04 19:16:00,18.4,-5.3,29.87,NW,319,4.0,11.0,34,0.00,,,0.00,Wunderground v.1.15,2013-02-05 00:16:00,
2013-02-04 19:22:00,18.3,-4.8,29.87,NW,315,1.0,7.0,35,0.00,,,0.00,Wunderground v.1.15,2013-02-05 00:22:00,
2013-02-04 19:27:00,18.1,-4.4,29.87,NW,315,1.0,7.0,36,0.00,,,0.00,Wunderground v.1.15,2013-02-05 00:27:00,
2013-02-04 19:32:00,18.0,-3.9,29.87,NW,315,0.0,3.0,37,0.00,,,0.00,Wunderground v.1.15,2013-02-05 00:32:00,
2013-02-04 19:37:00,17.8,-4.1,29.87,NW,315,5.0,5.0,37,0.00,,,0.00,Wunderground v.1.15,2013-02-05 00:37:00,
2013-02-04 19:42:00,17.8,-4.1,29.88,NW,315,0.0,1.0,37,0.00,,,0.00,Wunderground v.1.15,2013-02-05 00:42:00,
2013-02-04 19:47:00,17.7,-4.2,29.88,NW,315,4.0,4.0,37,0.00,,,0.00,Wunderground v.1.15,2013-02-05 00:47:00,
2013-02-04 19:52:00,17.7,-3.7,29.88,NW,315,0.0,1.0,38,0.00,,,0.00,Wunderground v.1.15,2013-02-05 00:52:00,
2013-02-04 19:57:00,17.3,-4.0,29.88,NW,315,0.0,1.0,38,0.00,,,0.00,Wunderground v.1.15,2013-02-05 00:57:00,
2013-02-04 20:02:00,17.2,-3.6,29.88,NW,315,0.0,0.0,39,0.00,,,0.00,Wunderground v.1.15,2013-02-05 01:02:00,
2013-02-04 20:07:00,16.7,-3.5,29.88,NW,315,0.0,1.0,40,0.00,,,0.00,Wunderground v.1.15,2013-02-05 01:07:00,
2013-02-04 20:12:00,16.4,-3.8,29.88,NW,315,0.0,1.0,40,0.00,,,0.00,Wunderground v.1.15,2013-02-05 01:12:00,
2013-02-04 20:17:00,16.2,-2.9,29.88,NW,315,0.0,1.0,42,0.00,,,0.00,Wunderground v.1.15,2013-02-05 01:17:00,
2013-02-04 20:22:00,16.1,-3.5,29.88,NW,315,0.0,0.0,41,0.00,,,0.00,Wunderground v.1.15,2013-02-05 01:22:00,
2013-02-04 20:27:00,15.9,-3.2,29.89,NW,315,0.0,0.0,42,0.00,,,0.00,Wunderground v.1.15,2013-02-05 01:27:00,
2013-02-04 20:33:00,16.1,-3.0,29.89,NW,315,0.0,1.0,42,0.00,,,0.00,Wunderground v.1.15,2013-02-05 01:33:00,
2013-02-04 20:38:00,16.2,-2.9,29.89,NW,315,0.0,1.0,42,0.00,,,0.00,Wunderground v.1.15,2013-02-05 01:38:00,
2013-02-04 20:43:00,16.4,-2.7,29.89,NW,315,0.0,1.0,42,0.00,,,0.00,Wunderground v.1.15,2013-02-05 01:43:00,
2013-02-04 20:48:00,16.4,-2.7,29.89,NW,315,0.0,1.0,42,0.00,,,0.00,Wunderground v.1.15,2013-02-05 01:48:00,
2013-02-04 20:53:00,15.9,-2.7,29.89,NW,315,1.0,2.0,43,0.00,,,0.00,Wunderground v.1.15,2013-02-05 01:53:00,
2013-02-04 20:58:00,15.2,-2.8,29.89,NW,315,0.0,2.0,44,0.00,,,0.00,Wunderground v.1.15,2013-02-05 01:58:00,
2013-02-04 21:03:00,14.9,-3.1,29.89,NW,315,0.0,0.0,44,0.00,,,0.00,Wunderground v.1.15,2013-02-05 02:03:00,
2013-02-04 21:08:00,14.8,-2.7,29.89,NW,315,0.0,0.0,45,0.00,,,0.00,Wunderground v.1.15,2013-02-05 02:08:00,
2013-02-04 21:14:00,14.4,-3.1,29.89,NW,315,0.0,0.0,45,0.00,,,0.00,Wunderground v.1.15,2013-02-05 02:14:00,
2013-02-04 21:19:00,14.6,-3.4,29.89,NW,315,0.0,1.0,44,0.00,,,0.00,Wunderground v.1.15,2013-02-05 02:19:00,
2013-02-04 21:24:00,14.8,-2.7,29.89,NW,315,2.0,2.0,45,0.00,,,0.00,Wunderground v.1.15,2013-02-05 02:24:00,
2013-02-04 21:29:00,14.8,-2.3,29.90,NW,315,2.0,2.0,46,0.00,,,0.00,Wunderground v.1.15,2013-02-05 02:29:00,
2013-02-04 21:35:00,14.9,-2.2,29.90,NW,315,2.0,2.0,46,0.00,,,0.00,Wunderground v.1.15,2013-02-05 02:35:00,
2013-02-04 21:40:00,15.1,-2.0,29.90,NW,315,1.0,2.0,46,0.00,,,0.00,Wunderground v.1.15,2013-02-05 02:40:00,
2013-02-04 21:45:00,15.1,-2.0,29.90,NW,315,2.0,2.0,46,0.00,,,0.00,Wunderground v.1.15,2013-02-05 02:45:00,
2013-02-04 21:50:00,14.8,-2.7,29.90,NNW,344,3.0,3.0,45,0.00,,,0.00,Wunderground v.1.15,2013-02-05 02:50:00,
2013-02-04 21:55:00,14.8,-1.4,29.90,NNW,346,3.0,4.0,48,0.00,,,0.00,Wunderground v.1.15,2013-02-05 02:55:00,
2013-02-04 22:00:00,13.6,-2.1,29.90,ENE,71,5.0,13.0,49,0.00,,,0.00,Wunderground v.1.15,2013-02-05 03:00:00,
2013-02-04 22:05:00,13.1,-2.1,29.90,ENE,67,6.0,13.0,50,0.00,,,0.00,Wunderground v.1.15,2013-02-05 03:05:00,
2013-02-04 22:11:00,12.6,-2.1,29.90,NE,55,7.0,10.0,51,0.00,,,0.00,Wunderground v.1.15,2013-02-05 03:11:00,
2013-02-04 22:16:00,12.3,-2.4,29.90,NE,44,6.0,11.0,51,0.00,,,0.00,Wunderground v.1.15,2013-02-05 03:16:00,
2013-02-04 22:21:00,11.9,-2.8,29.90,NE,42,10.0,10.0,51,0.00,,,0.00,Wunderground v.1.15,2013-02-05 03:21:00,
2013-02-04 22:26:00,11.9,-2.4,29.91,NE,42,8.0,10.0,52,0.00,,,0.00,Wunderground v.1.15,2013-02-05 03:26:00,
2013-02-04 22:31:00,11.7,-3.0,29.91,NE,38,6.0,9.0,51,0.00,,,0.00,Wunderground v.1.15,2013-02-05 03:31:00,
2013-02-04 22:36:00,11.6,-3.5,29.91,NE,52,6.0,11.0,50,0.00,,,0.00,Wunderground v.1.15,2013-02-05 03:36:00,
2013-02-04 22:41:00,11.4,-3.7,29.92,ENE,58,6.0,7.0,50,0.00,,,0.00,Wunderground v.1.15,2013-02-05 03:41:00,
2013-02-04 22:46:00,11.2,-3.9,29.92,ENE,59,10.0,11.0,50,0.00,,,0.00,Wunderground v.1.15,2013-02-05 03:46:00,
2013-02-04 22:51:00,11.2,-3.9,29.92,ENE,62,5.0,10.0,50,0.00,,,0.00,Wunderground v.1.15,2013-02-05 03:51:00,
2013-02-04 22:56:00,11.1,-3.9,29.92,NE,47,4.0,10.0,50,0.00,,,0.00,Wunderground v.1.15,2013-02-05 03:56:00,
2013-02-04 23:01:00,10.9,-4.6,29.92,NE,50,5.0,7.0,49,0.00,,,0.00,Wunderground v.1.15,2013-02-05 04:01:00,
2013-02-04 23:06:00,10.7,-4.3,29.92,ENE,63,4.0,9.0,50,0.00,,,0.00,Wunderground v.1.15,2013-02-05 04:06:00,
2013-02-04 23:11:00,10.7,-4.7,29.92,ENE,63,9.0,11.0,49,0.00,,,0.00,Wunderground v.1.15,2013-02-05 04:11:00,
2013-02-04 23:17:00,10.7,-4.7,29.92,ENE,78,7.0,12.0,49,0.00,,,0.00,Wunderground v.1.15,2013-02-05 04:17:00,
2013-02-04 23:22:00,10.7,-4.7,29.92,East,86,6.0,10.0,49,0.00,,,0.00,Wunderground v.1.15,2013-02-05 04:22:00,
2013-02-04 23:27:00,10.7,-5.2,29.93,ENE,58,6.0,11.0,48,0.00,,,0.00,Wunderground v.1.15,2013-02-05 04:27:00,
2013-02-04 23:32:00,10.5,-5.4,29.93,ENE,65,6.0,7.0,48,0.00,,,0.00,Wunderground v.1.15,2013-02-05 04:32:00,
2013-02-04 23:37:00,10.5,-5.4,29.93,ENE,74,7.0,12.0,48,0.00,,,0.00,Wunderground v.1.15,2013-02-05 04:37:00,
2013-02-04 23:42:00,10.5,-5.4,29.93,ENE,65,6.0,12.0,48,0.00,,,0.00,Wunderground v.1.15,2013-02-05 04:42:00,
2013-02-04 23:47:00,10.5,-5.4,29.93,NE,53,5.0,12.0,48,0.00,,,0.00,Wunderground v.1.15,2013-02-05 04:47:00,
2013-02-04 23:52:00,10.4,-5.4,29.93,ENE,62,11.0,15.0,48,0.00,,,0.00,Wunderground v.1.15,2013-02-05 04:52:00,
2013-02-04 23:57:00,10.4,-5.4,29.93,ENE,64,7.0,15.0,48,0.00,,,0.00,Wunderground v.1.15,2013-02-05 04:57:00,